Time;durP1;ratioP1;P1;durP2;ratioP2;P2;SDS_P1;SDS_P2;PMS_P1;PMS_P2;Temp;Humidity;BMP_temperature;BMP_pressure;BME280_temperature;BME280_humidity;BME280_pressure;Samples;Min_cycle;Max_cycle;Signal;HPM_P1;HPM_P2
2023/07/29 00:02:15;;;;;;;;;;;;;;;18.71;83.33;97594.16;5026755;28;19975;-60
2023/07/29 00:04:43;;;;;;;;;;;;;;;18.73;83.09;97591.81;5021994;28;19929;-60
2023/07/29 00:07:12;;;;;;;;;;;;;;;18.74;83.07;97590.63;5017349;28;20020;-60
2023/07/29 00:09:40;;;;;;;;;;;;;;;18.66;83.74;97591.69;5024782;28;20355;-60
2023/07/29 00:12:08;;;;;;;;;;;;;;;18.66;83.58;97586.19;5021580;28;19925;-62
2023/07/29 00:14:36;;;;;;;;;;;;;;;18.64;83.78;97585.75;5029535;28;20359;-60
2023/07/29 00:17:04;;;;;;;;;;;;;;;18.66;83.70;97582.63;5025216;28;19970;-63
2023/07/29 00:19:32;;;;;;;;;;;;;;;18.54;84.42;97578.94;5018349;28;20024;-61
2023/07/29 00:22:00;;;;;;;;;;;;;;;18.56;84.36;97573.06;5021065;28;20387;-62
2023/07/29 00:24:29;;;;;;;;;;;;;;;18.58;84.20;97567.97;5016008;28;19965;-61
2023/07/29 00:26:57;;;;;;;;;;;;;;;18.50;84.88;97569.84;5030042;28;19929;-60
2023/07/29 00:29:24;;;;;;;;;;;;;;;18.45;85.23;97564.66;5026267;28;20023;-61
2023/07/29 00:31:52;;;;;;;;;;;;;;;18.40;85.79;97572.44;5026474;28;19925;-60
2023/07/29 00:34:21;;;;;;;;;;;;;;;18.46;85.44;97566.25;5030123;28;20394;-60
2023/07/29 00:36:49;;;;;;;;;;;;;;;18.52;84.99;97558.47;5010479;28;19933;-60
2023/07/29 00:39:19;;;;;;;;;;;;;;;18.45;85.10;97563.88;5023085;28;20402;-62
2023/07/29 00:41:48;;;;;;;;;;;;;;;18.45;85.32;97561.13;5017811;28;19931;-60
2023/07/29 00:44:15;;;;;;;;;;;;;;;18.39;85.32;97568.13;5025360;28;20438;-64
2023/07/29 00:46:43;;;;;;;;;;;;;;;18.48;84.78;97563.94;5025779;28;19972;-60
2023/07/29 00:49:13;;;;;;;;;;;;;;;18.48;85.00;97561.19;5035430;28;19925;-60
2023/07/29 00:51:41;;;;;;;;;;;;;;;18.50;84.90;97558.84;5013738;28;20374;-61
2023/07/29 00:54:09;;;;;;;;;;;;;;;18.50;84.67;97566.31;5020418;28;19980;-60
2023/07/29 00:56:41;;;;;;;;;;;;;;;18.43;84.87;97571.69;5013410;28;19929;-60
2023/07/29 00:59:10;;;;;;;;;;;;;;;18.40;85.41;97566.94;5017181;28;20387;-61
2023/07/29 01:01:38;;;;;;;;;;;;;;;18.46;84.99;97565.47;5021852;28;19932;-60
2023/07/29 01:04:06;;;;;;;;;;;;;;;18.46;84.67;97565.47;5029969;28;20016;-60
2023/07/29 01:06:39;;;;;;;;;;;;;;;18.41;85.11;97571.28;5017478;28;19926;-60
2023/07/29 01:09:08;;;;;;;;;;;;;;;18.38;84.89;97567.31;5020177;28;19933;-61
2023/07/29 01:11:40;;;;;;;;;;;;;;;18.42;84.88;97559.09;5025882;28;19929;-61
2023/07/29 01:14:11;;;;;;;;;;;;;;;18.40;85.01;97567.72;5020908;28;19926;-61
2023/07/29 01:16:40;;;;;;;;;;;;;;;18.37;85.05;97565.72;5026748;28;20357;-60
2023/07/29 01:19:08;;;;;;;;;;;;;;;18.37;84.63;97570.44;5019761;28;20322;-62
2023/07/29 01:21:36;;;;;;;;;;;;;;;18.17;85.83;97565.03;5017684;28;19945;-61
2023/07/29 01:24:05;;;;;;;;;;;;;;;18.29;85.23;97567.59;5019030;28;19976;-61
2023/07/29 01:26:33;;;;;;;;;;;;;;;18.32;84.89;97564.09;5024344;28;19926;-61
2023/07/29 01:29:03;;;;;;;;;;;;;;;18.35;84.68;97570.00;5021038;28;19933;-62
2023/07/29 01:31:32;;;;;;;;;;;;;;;18.30;84.63;97563.66;5015936;28;19969;-60
2023/07/29 01:34:00;;;;;;;;;;;;;;;18.26;84.72;97559.28;5025089;28;19929;-60
2023/07/29 01:36:28;;;;;;;;;;;;;;;18.28;84.69;97566.00;5026334;28;19926;-61
2023/07/29 01:38:56;;;;;;;;;;;;;;;18.27;84.50;97564.41;5034426;28;19978;-60
2023/07/29 01:41:25;;;;;;;;;;;;;;;18.19;85.08;97568.22;5019897;28;19925;-61
2023/07/29 01:43:53;;;;;;;;;;;;;;;18.21;84.93;97565.09;5019800;28;19961;-59
2023/07/29 01:46:21;;;;;;;;;;;;;;;18.22;84.79;97570.22;5015162;28;19975;-60
2023/07/29 01:48:48;;;;;;;;;;;;;;;18.23;84.83;97563.56;5021548;28;20386;-60
2023/07/29 01:51:16;;;;;;;;;;;;;;;18.20;84.94;97558.78;5027596;28;19982;-60
2023/07/29 01:53:44;;;;;;;;;;;;;;;18.13;85.36;97560.66;5029275;28;19951;-60
2023/07/29 01:56:12;;;;;;;;;;;;;;;18.15;85.34;97561.84;5021625;28;19934;-61
2023/07/29 01:58:50;;;;;;;;;;;;;;;18.20;84.83;97566.25;5023192;28;19925;-59
2023/07/29 02:01:19;;;;;;;;;;;;;;;18.12;84.97;97556.31;5018897;28;19932;-60
2023/07/29 02:03:48;;;;;;;;;;;;;;;18.09;85.16;97552.34;5021166;28;19965;-61
2023/07/29 02:06:16;;;;;;;;;;;;;;;18.06;85.59;97548.38;5024088;28;19932;-61
2023/07/29 02:08:44;;;;;;;;;;;;;;;18.06;85.31;97542.09;5022481;28;20304;-61
2023/07/29 02:11:11;;;;;;;;;;;;;;;18.05;85.52;97540.50;5024236;28;19929;-61
2023/07/29 02:13:39;;;;;;;;;;;;;;;17.95;86.00;97546.59;5026612;28;19979;-60
2023/07/29 02:16:08;;;;;;;;;;;;;;;17.96;85.95;97548.22;5026183;28;20386;-62
2023/07/29 02:18:36;;;;;;;;;;;;;;;18.03;85.46;97542.81;5020299;28;19940;-60
2023/07/29 02:21:04;;;;;;;;;;;;;;;18.06;85.21;97547.59;5019677;28;19929;-61
2023/07/29 02:23:32;;;;;;;;;;;;;;;18.04;85.25;97547.94;5023509;28;19929;-61
2023/07/29 02:25:59;;;;;;;;;;;;;;;18.05;85.12;97535.00;5016471;28;19929;-61
2023/07/29 02:28:27;;;;;;;;;;;;;;;18.06;84.70;97533.84;5027299;28;19928;-61
2023/07/29 02:31:11;;;;;;;;;;;;;;;18.04;84.85;97530.66;5023477;28;19925;-62
2023/07/29 02:33:41;;;;;;;;;;;;;;;18.00;84.81;97527.06;5028516;28;20457;-61
2023/07/29 02:36:09;;;;;;;;;;;;;;;18.00;84.94;97521.56;5025094;28;19925;-60
2023/07/29 02:38:36;;;;;;;;;;;;;;;17.92;85.01;97517.13;5018558;28;19929;-61
2023/07/29 02:41:04;;;;;;;;;;;;;;;17.83;85.34;97511.88;5020936;28;19932;-60
2023/07/29 02:43:32;;;;;;;;;;;;;;;17.74;86.43;97517.66;5024428;28;19940;-60
2023/07/29 02:45:59;;;;;;;;;;;;;;;17.68;86.66;97516.31;5020669;28;19961;-60
2023/07/29 02:48:30;;;;;;;;;;;;;;;17.75;86.29;97511.00;5022872;28;20382;-61
2023/07/29 02:50:59;;;;;;;;;;;;;;;17.79;86.25;97503.59;5015401;28;19952;-61
2023/07/29 02:53:27;;;;;;;;;;;;;;;17.84;85.97;97501.69;5020855;28;19933;-59
2023/07/29 02:55:55;;;;;;;;;;;;;;;17.85;85.76;97506.03;5029171;28;19925;-60
2023/07/29 02:58:23;;;;;;;;;;;;;;;17.84;85.76;97491.47;5020598;28;19932;-61
2023/07/29 03:00:51;;;;;;;;;;;;;;;17.85;85.59;97497.81;5023604;28;19963;-62
2023/07/29 03:03:19;;;;;;;;;;;;;;;17.61;86.37;97496.97;5014870;28;19979;-61
2023/07/29 03:05:48;;;;;;;;;;;;;;;17.70;86.10;97497.53;5021218;28;19936;-60
2023/07/29 03:08:17;;;;;;;;;;;;;;;17.64;86.10;97499.00;5014818;28;19929;-63
2023/07/29 03:10:45;;;;;;;;;;;;;;;17.68;86.15;97494.34;5018787;28;20446;-60
2023/07/29 03:13:13;;;;;;;;;;;;;;;17.66;85.90;97487.66;5031873;28;20525;-60
2023/07/29 03:15:41;;;;;;;;;;;;;;;17.49;86.53;97503.47;5028439;28;19948;-60
2023/07/29 03:18:08;;;;;;;;;;;;;;;17.49;86.77;97505.41;5016183;28;19991;-60
2023/07/29 03:20:37;;;;;;;;;;;;;;;17.42;87.32;97517.09;5019455;28;19929;-60
2023/07/29 03:23:04;;;;;;;;;;;;;;;17.49;87.24;97519.16;5030497;28;19975;-62
2023/07/29 03:25:33;;;;;;;;;;;;;;;17.47;86.62;97519.53;5018662;28;19944;-60
2023/07/29 03:28:01;;;;;;;;;;;;;;;17.53;86.15;97520.00;5039342;28;20017;-59
2023/07/29 03:30:29;;;;;;;;;;;;;;;17.60;85.80;97530.31;5031046;28;19939;-60
2023/07/29 03:32:57;;;;;;;;;;;;;;;17.64;85.32;97523.72;5022412;28;19929;-60
2023/07/29 03:35:25;;;;;;;;;;;;;;;17.55;85.81;97525.91;5019311;28;19952;-60
2023/07/29 03:37:52;;;;;;;;;;;;;;;17.63;85.16;97519.41;5030404;28;19932;-60
2023/07/29 03:40:20;;;;;;;;;;;;;;;17.66;85.03;97529.63;5015978;28;20278;-60
2023/07/29 03:42:49;;;;;;;;;;;;;;;17.57;85.67;97529.09;5026059;28;19933;-60
2023/07/29 03:45:17;;;;;;;;;;;;;;;17.58;85.27;97527.94;5018976;28;19930;-60
2023/07/29 03:47:45;;;;;;;;;;;;;;;17.59;85.17;97520.50;5016218;28;20039;-60
2023/07/29 03:50:13;;;;;;;;;;;;;;;17.53;85.72;97514.53;5018209;28;19961;-60
2023/07/29 03:52:41;;;;;;;;;;;;;;;17.55;86.04;97512.97;5018015;28;20016;-60
2023/07/29 03:55:09;;;;;;;;;;;;;;;17.60;85.83;97513.84;5018364;28;20283;-61
2023/07/29 03:57:37;;;;;;;;;;;;;;;17.56;86.08;97508.28;5020713;28;19964;-62
2023/07/29 04:00:07;;;;;;;;;;;;;;;17.59;86.17;97512.25;5020395;28;19933;-60
2023/07/29 04:02:46;;;;;;;;;;;;;;;17.63;85.87;97499.34;5026665;28;19933;-60
2023/07/29 04:05:14;;;;;;;;;;;;;;;17.64;86.16;97501.75;5034230;28;19925;-60
2023/07/29 04:07:42;;;;;;;;;;;;;;;17.61;86.66;97496.97;5021226;28;19934;-60
2023/07/29 04:10:10;;;;;;;;;;;;;;;17.69;86.08;97486.91;5006140;28;20393;-60
2023/07/29 04:12:39;;;;;;;;;;;;;;;17.73;86.10;97483.06;5018247;28;19975;-60
2023/07/29 04:15:09;;;;;;;;;;;;;;;17.73;86.19;97479.53;5018561;28;19952;-60
2023/07/29 04:17:36;;;;;;;;;;;;;;;17.72;86.07;97473.25;5010115;28;19935;-61
2023/07/29 04:20:05;;;;;;;;;;;;;;;17.72;85.87;97476.00;5023886;28;19975;-60
2023/07/29 04:22:34;;;;;;;;;;;;;;;17.73;85.81;97474.84;5023912;28;20029;-60
2023/07/29 04:25:04;;;;;;;;;;;;;;;17.76;85.59;97474.09;5022475;28;19933;-64
2023/07/29 04:27:32;;;;;;;;;;;;;;;17.65;85.85;97475.88;5021746;28;20218;-60
2023/07/29 04:30:00;;;;;;;;;;;;;;;17.71;85.66;97477.13;5021698;28;19968;-61
2023/07/29 04:32:29;;;;;;;;;;;;;;;17.77;85.59;97481.19;5020967;28;20414;-63
2023/07/29 04:34:56;;;;;;;;;;;;;;;17.75;85.65;97482.72;5025179;28;19925;-61
2023/07/29 04:37:24;;;;;;;;;;;;;;;17.70;85.78;97483.78;5022094;28;19936;-60
2023/07/29 04:39:52;;;;;;;;;;;;;;;17.70;86.13;97491.25;5033061;28;20367;-60
2023/07/29 04:42:20;;;;;;;;;;;;;;;17.72;85.89;97484.25;5037224;28;19987;-60
2023/07/29 04:44:49;;;;;;;;;;;;;;;17.80;85.93;97474.16;5026457;28;19932;-61
2023/07/29 04:47:17;;;;;;;;;;;;;;;17.90;85.44;97472.75;5020032;28;19964;-60
2023/07/29 04:49:47;;;;;;;;;;;;;;;17.91;85.48;97477.09;5034263;28;20389;-60
2023/07/29 04:52:14;;;;;;;;;;;;;;;17.90;85.48;97470.00;5016320;28;19931;-60
2023/07/29 04:54:42;;;;;;;;;;;;;;;17.95;85.05;97472.41;5026703;28;19924;-60
2023/07/29 04:57:10;;;;;;;;;;;;;;;17.96;85.22;97471.25;5028389;28;19929;-61
2023/07/29 04:59:38;;;;;;;;;;;;;;;17.98;85.22;97469.72;5031026;28;20294;-60
2023/07/29 05:02:06;;;;;;;;;;;;;;;17.99;85.55;97465.00;5019070;28;20025;-61
2023/07/29 05:04:34;;;;;;;;;;;;;;;18.03;85.42;97461.16;5022569;28;19965;-61
2023/07/29 05:07:03;;;;;;;;;;;;;;;18.05;85.41;97463.53;5019084;28;19930;-60
2023/07/29 05:09:31;;;;;;;;;;;;;;;18.10;85.08;97454.97;5017536;28;19925;-59
2023/07/29 05:11:59;;;;;;;;;;;;;;;18.11;84.77;97453.81;5035682;28;20298;-60
2023/07/29 05:14:26;;;;;;;;;;;;;;;18.09;84.65;97445.13;5016272;28;19933;-60
2023/07/29 05:16:55;;;;;;;;;;;;;;;18.05;84.91;97447.81;5021674;28;19936;-63
2023/07/29 05:19:23;;;;;;;;;;;;;;;18.03;85.30;97452.91;5013726;28;20286;-61
2023/07/29 05:21:51;;;;;;;;;;;;;;;18.06;85.44;97454.13;5025984;28;19965;-60
2023/07/29 05:24:20;;;;;;;;;;;;;;;18.02;85.34;97459.56;5024860;28;20325;-60
2023/07/29 05:26:48;;;;;;;;;;;;;;;18.06;85.05;97462.38;5019089;28;19969;-60
2023/07/29 05:29:15;;;;;;;;;;;;;;;18.04;85.54;97464.69;5027977;28;19925;-59
2023/07/29 05:31:43;;;;;;;;;;;;;;;18.12;85.15;97466.41;5037090;28;20392;-59
2023/07/29 05:34:11;;;;;;;;;;;;;;;18.13;85.35;97475.44;5033022;28;19979;-59
2023/07/29 05:36:40;;;;;;;;;;;;;;;18.15;85.09;97465.63;5027740;28;19932;-60
2023/07/29 05:39:08;;;;;;;;;;;;;;;18.16;85.54;97472.72;5035543;28;19973;-60
2023/07/29 05:41:37;;;;;;;;;;;;;;;18.20;85.44;97470.03;5017603;28;19925;-60
2023/07/29 05:44:05;;;;;;;;;;;;;;;18.24;85.40;97465.38;5025106;28;20378;-63
2023/07/29 05:46:35;;;;;;;;;;;;;;;18.22;85.09;97467.72;5033935;28;19928;-59
2023/07/29 05:49:03;;;;;;;;;;;;;;;18.28;84.85;97461.50;5029181;28;19932;-59
2023/07/29 05:51:30;;;;;;;;;;;;;;;18.26;85.02;97469.31;5023538;28;20010;-60
2023/07/29 05:53:58;;;;;;;;;;;;;;;18.25;85.13;97472.44;5020793;28;19979;-59
2023/07/29 05:56:26;;;;;;;;;;;;;;;18.28;84.72;97458.75;5024785;28;20261;-60
2023/07/29 05:58:55;;;;;;;;;;;;;;;18.28;85.03;97461.50;5017031;28;19975;-61
2023/07/29 06:01:23;;;;;;;;;;;;;;;18.27;85.40;97453.63;5029152;28;20011;-59
2023/07/29 06:03:51;;;;;;;;;;;;;;;18.29;85.32;97454.84;5032787;28;20011;-61
2023/07/29 06:06:18;;;;;;;;;;;;;;;18.30;85.46;97459.16;5027771;28;19931;-60
2023/07/29 06:08:46;;;;;;;;;;;;;;;18.30;85.30;97474.88;5012700;28;20322;-59
2023/07/29 06:11:14;;;;;;;;;;;;;;;18.34;85.06;97475.72;5027875;28;19992;-60
2023/07/29 06:13:41;;;;;;;;;;;;;;;18.34;84.76;97481.22;5037278;28;19963;-60
2023/07/29 06:16:11;;;;;;;;;;;;;;;18.35;85.05;97480.06;5028998;28;19925;-59
2023/07/29 06:18:39;;;;;;;;;;;;;;;18.36;85.12;97481.63;5028133;28;19925;-60
2023/07/29 06:21:07;;;;;;;;;;;;;;;18.36;85.17;97484.38;5020163;28;19930;-60
2023/07/29 06:23:35;;;;;;;;;;;;;;;18.35;85.41;97479.25;5022639;28;19951;-60
2023/07/29 06:26:03;;;;;;;;;;;;;;;18.32;85.52;97476.09;5017994;28;19925;-60
2023/07/29 06:28:31;;;;;;;;;;;;;;;18.30;85.71;97475.66;5021224;28;19925;-60
2023/07/29 06:30:59;;;;;;;;;;;;;;;18.33;85.79;97474.94;5016421;28;19925;-58
2023/07/29 06:33:28;;;;;;;;;;;;;;;18.36;85.93;97472.59;5016621;28;19925;-59
2023/07/29 06:35:56;;;;;;;;;;;;;;;18.36;86.05;97473.38;5024140;28;19964;-59
2023/07/29 06:38:23;;;;;;;;;;;;;;;18.36;86.33;97467.88;5015415;28;19969;-59
2023/07/29 06:40:52;;;;;;;;;;;;;;;18.37;86.19;97471.41;5022379;28;19952;-61
2023/07/29 06:43:20;;;;;;;;;;;;;;;18.43;85.83;97478.16;5018096;28;19968;-61
2023/07/29 06:45:47;;;;;;;;;;;;;;;18.40;86.26;97500.94;5016480;28;19925;-59
2023/07/29 06:48:15;;;;;;;;;;;;;;;18.44;86.25;97530.09;5021285;28;19932;-58
2023/07/29 06:50:44;;;;;;;;;;;;;;;18.40;88.33;97522.94;5021875;28;19925;-61
2023/07/29 06:53:12;;;;;;;;;;;;;;;18.37;90.21;97507.16;5016987;28;19925;-60
2023/07/29 06:55:40;;;;;;;;;;;;;;;18.31;90.61;97496.50;5014816;28;19997;-60
2023/07/29 06:58:08;;;;;;;;;;;;;;;18.30;90.66;97486.66;5018729;28;19925;-60
2023/07/29 07:00:36;;;;;;;;;;;;;;;18.25;90.90;97492.47;5010823;28;19925;-60
2023/07/29 07:03:03;;;;;;;;;;;;;;;18.17;91.29;97490.81;5020126;28;20405;-60
2023/07/29 07:05:31;;;;;;;;;;;;;;;18.16;89.61;97500.19;5019130;28;20283;-62
2023/07/29 07:08:01;;;;;;;;;;;;;;;18.20;89.65;97503.81;5015053;28;20446;-59
2023/07/29 07:10:31;;;;;;;;;;;;;;;18.20;90.48;97505.75;5027191;23;19933;-77
2023/07/29 07:12:59;;;;;;;;;;;;;;;18.18;90.66;97494.34;5043670;28;19944;-79
2023/07/29 07:15:27;;;;;;;;;;;;;;;18.18;91.10;97495.16;5056595;28;19976;-79
2023/07/29 07:17:55;;;;;;;;;;;;;;;18.18;91.61;97495.16;5059879;28;19932;-79
2023/07/29 07:20:26;;;;;;;;;;;;;;;18.23;92.02;97496.78;5059351;28;19917;-78
2023/07/29 07:22:55;;;;;;;;;;;;;;;18.28;92.33;97488.22;5050800;28;19909;-79
2023/07/29 07:25:49;;;;;;;;;;;;;;;18.32;93.14;97480.78;5397589;22;19929;-79
2023/07/29 07:34:46;;;;;;;;;;;;;;;18.44;94.09;97474.28;5143841;22;19936;-66
2023/07/29 07:37:14;;;;;;;;;;;;;;;18.49;94.09;97471.19;5042644;28;19928;-62
2023/07/29 07:39:42;;;;;;;;;;;;;;;18.50;94.82;97483.78;5047768;28;19925;-61
2023/07/29 07:42:15;;;;;;;;;;;;;;;18.50;95.59;97475.53;5048174;28;20404;-62
2023/07/29 07:44:43;;;;;;;;;;;;;;;18.54;95.44;97476.38;5042153;28;19951;-60
2023/07/29 07:47:10;;;;;;;;;;;;;;;18.59;95.26;97476.03;5043021;28;19956;-62
2023/07/29 07:49:41;;;;;;;;;;;;;;;18.58;95.61;97479.94;5038969;28;20040;-60
2023/07/29 07:52:09;;;;;;;;;;;;;;;18.64;95.65;97477.66;5047013;28;19925;-60
2023/07/29 07:54:37;;;;;;;;;;;;;;;18.65;95.28;97479.25;5045642;28;20076;-60
2023/07/29 07:57:05;;;;;;;;;;;;;;;18.66;95.08;97486.34;5037361;28;20019;-60
2023/07/29 07:59:34;;;;;;;;;;;;;;;18.68;95.49;97484.81;5040234;28;20030;-60
2023/07/29 08:02:03;;;;;;;;;;;;;;;18.69;95.26;97480.88;5041557;28;19929;-65
2023/07/29 08:04:30;;;;;;;;;;;;;;;18.69;95.33;97480.09;5043361;28;19925;-60
2023/07/29 08:06:58;;;;;;;;;;;;;;;18.64;95.46;97478.44;5045734;28;19983;-63
2023/07/29 08:09:28;;;;;;;;;;;;;;;18.64;95.28;97478.44;5038730;28;19925;-59
2023/07/29 08:11:56;;;;;;;;;;;;;;;18.67;95.45;97482.41;5051061;28;19928;-59
2023/07/29 08:14:23;;;;;;;;;;;;;;;18.67;95.23;97483.22;5039985;28;19952;-62
2023/07/29 08:16:52;;;;;;;;;;;;;;;18.66;95.08;97470.63;5032223;28;20018;-61
2023/07/29 08:19:20;;;;;;;;;;;;;;;18.65;95.27;97447.03;5056172;28;20335;-60
2023/07/29 08:21:49;;;;;;;;;;;;;;;18.66;95.65;97459.63;5056958;28;19960;-60
2023/07/29 08:24:17;;;;;;;;;;;;;;;18.63;95.76;97457.59;5048157;28;19928;-61
2023/07/29 08:26:45;;;;;;;;;;;;;;;18.57;96.01;97457.16;5054637;28;19925;-59
2023/07/29 08:29:15;;;;;;;;;;;;;;;18.60;95.87;97466.63;5052804;28;19933;-60
2023/07/29 08:31:43;;;;;;;;;;;;;;;18.56;96.00;97483.06;5044826;28;19924;-59
2023/07/29 08:34:12;;;;;;;;;;;;;;;18.59;95.96;97454.84;5040346;28;19956;-60
2023/07/29 08:36:39;;;;;;;;;;;;;;;18.56;96.66;97443.78;5057502;28;19936;-60
2023/07/29 08:39:07;;;;;;;;;;;;;;;18.52;96.79;97449.22;5061233;28;19924;-61
2023/07/29 08:41:58;;;;;;;;;;;;;;;18.54;96.60;97446.13;5057668;28;20027;-61
2023/07/29 08:44:36;;;;;;;;;;;;;;;18.55;97.02;97458.69;5049852;28;19924;-59
2023/07/29 08:47:06;;;;;;;;;;;;;;;18.55;97.42;97464.19;5034971;28;19935;-59
2023/07/29 08:49:36;;;;;;;;;;;;;;;18.53;97.22;97467.31;5039975;28;19925;-60
2023/07/29 08:52:09;;;;;;;;;;;;;;;18.57;96.62;97468.16;5047455;28;20154;-59
2023/07/29 08:54:57;;;;;;;;;;;;;;;18.61;94.19;97462.69;5047637;28;19975;-60
2023/07/29 08:57:45;;;;;;;;;;;;;;;18.65;92.05;97476.50;5045332;28;19925;-60
2023/07/29 09:00:33;;;;;;;;;;;;;;;18.63;93.03;97465.84;5036931;28;19928;-59
2023/07/29 09:03:21;;;;;;;;;;;;;;;18.62;93.00;97466.25;5042477;28;19979;-59
2023/07/29 09:06:10;;;;;;;;;;;;;;;18.58;93.04;97469.72;5048223;28;19932;-59
2023/07/29 09:08:58;;;;;;;;;;;;;;;18.59;92.57;97470.53;5049118;28;19928;-59
2023/07/29 09:11:48;;;;;;;;;;;;;;;18.63;92.85;97465.84;5044987;28;20566;-60
2023/07/29 09:14:36;;;;;;;;;;;;;;;18.56;94.34;97485.81;5051839;28;20408;-61
2023/07/29 09:17:24;;;;;;;;;;;;;;;18.61;94.79;97479.22;5051209;28;19933;-60
2023/07/29 09:20:12;;;;;;;;;;;;;;;18.66;95.02;97487.13;5048470;28;20435;-60
2023/07/29 09:23:01;;;;;;;;;;;;;;;18.64;95.80;97497.69;5038600;28;19925;-59
2023/07/29 09:25:49;;;;;;;;;;;;;;;18.63;96.75;97498.88;5049237;28;19948;-60
2023/07/29 09:28:38;;;;;;;;;;;;;;;18.61;96.86;97512.22;5052182;28;19924;-59
2023/07/29 09:31:27;;;;;;;;;;;;;;;18.54;96.78;97517.66;5046093;28;19925;-60
2023/07/29 09:34:15;;;;;;;;;;;;;;;18.51;97.64;97516.41;5048567;28;19932;-60
2023/07/29 09:37:03;;;;;;;;;;;;;;;18.53;98.04;97510.53;5050840;28;20446;-61
2023/07/29 09:39:52;;;;;;;;;;;;;;;18.53;97.27;97507.78;5051050;28;19928;-59
2023/07/29 09:42:39;;;;;;;;;;;;;;;18.56;97.58;97518.06;5042357;28;19960;-59
2023/07/29 09:45:27;;;;;;;;;;;;;;;18.63;97.77;97512.63;5047148;28;20389;-60
2023/07/29 09:48:15;;;;;;;;;;;;;;;18.64;97.94;97516.16;5051653;28;19940;-60
2023/07/29 09:51:10;;;;;;;;;;;;;;;18.63;98.47;97511.84;5054698;28;19925;-60
2023/07/29 09:53:59;;;;;;;;;;;;;;;18.68;98.63;97509.56;5055002;28;20017;-59
2023/07/29 09:56:48;;;;;;;;;;;;;;;18.74;99.00;97499.03;5038250;28;20404;-61
2023/07/29 09:59:36;;;;;;;;;;;;;;;18.82;99.35;97500.72;5051231;28;20023;-60
2023/07/29 10:02:25;;;;;;;;;;;;;;;18.88;100.00;97492.91;5039798;28;19925;-64
2023/07/29 10:05:13;;;;;;;;;;;;;;;18.96;100.00;97489.06;5050560;28;20008;-61
2023/07/29 10:08:01;;;;;;;;;;;;;;;19.03;100.00;97491.91;5052608;28;20385;-60
2023/07/29 10:10:49;;;;;;;;;;;;;;;19.14;100.00;97490.06;5050373;28;19925;-60
2023/07/29 10:13:39;;;;;;;;;;;;;;;19.13;100.00;97488.47;5046956;28;19929;-60
2023/07/29 10:16:27;;;;;;;;;;;;;;;19.18;100.00;97492.84;5042528;28;19931;-61
2023/07/29 10:19:16;;;;;;;;;;;;;;;19.23;100.00;97503.50;5039416;28;19928;-60
2023/07/29 10:22:04;;;;;;;;;;;;;;;19.28;100.00;97503.97;5041827;28;19944;-60
2023/07/29 10:24:52;;;;;;;;;;;;;;;19.36;100.00;97500.09;5042457;28;19925;-61
2023/07/29 10:27:43;;;;;;;;;;;;;;;19.45;100.00;97493.50;5050082;28;20274;-61
2023/07/29 10:30:32;;;;;;;;;;;;;;;19.48;98.40;97493.53;5049431;28;19935;-62
2023/07/29 10:33:10;;;;;;;;;;;;;;;19.58;99.04;97487.31;5046286;28;19932;-60
2023/07/29 10:35:38;;;;;;;;;;;;;;;19.57;96.50;97485.75;5041847;28;19924;-62
2023/07/29 10:38:06;;;;;;;;;;;;;;;19.63;96.07;97483.44;5048029;28;20293;-60
2023/07/29 10:40:46;;;;;;;;;;;;;;;19.68;97.25;97488.59;5046550;28;19925;-61
2023/07/29 10:43:14;;;;;;;;;;;;;;;19.76;96.51;97493.03;5051846;28;19964;-61
2023/07/29 10:45:43;;;;;;;;;;;;;;;19.76;94.68;97487.50;5048494;28;20463;-61
2023/07/29 10:48:14;;;;;;;;;;;;;;;19.78;94.45;97490.66;5050145;28;19925;-60
2023/07/29 10:50:42;;;;;;;;;;;;;;;19.71;88.85;97485.09;5053632;28;19936;-60
2023/07/29 10:53:09;;;;;;;;;;;;;;;19.77;91.79;97494.59;5052004;28;19924;-61
2023/07/29 10:55:37;;;;;;;;;;;;;;;19.78;90.32;97492.63;5048189;28;20032;-64
2023/07/29 10:58:06;;;;;;;;;;;;;;;19.85;90.45;97498.19;5061511;28;19975;-60
2023/07/29 11:00:34;;;;;;;;;;;;;;;19.89;89.19;97488.78;5040274;28;19971;-60
2023/07/29 11:03:03;;;;;;;;;;;;;;;19.96;87.27;97492.75;5046108;28;19928;-62
2023/07/29 11:05:58;;;;;;;;;;;;;;;20.07;86.32;97479.81;5046502;28;19935;-59
2023/07/29 11:08:28;;;;;;;;;;;;;;;20.19;86.39;97475.94;5013788;28;20005;-60
2023/07/29 11:10:59;;;;;;;;;;;;;;;20.26;82.35;97482.31;5050369;28;19960;-60
2023/07/29 11:13:28;;;;;;;;;;;;;;;20.29;82.74;97481.53;5053457;28;20378;-61
2023/07/29 11:15:58;;;;;;;;;;;;;;;20.28;82.90;97479.97;5048265;28;20383;-64
2023/07/29 11:18:31;;;;;;;;;;;;;;;20.28;83.42;97479.16;5048107;28;19925;-63
2023/07/29 11:20:59;;;;;;;;;;;;;;;20.27;81.42;97475.63;5052075;28;19956;-61
2023/07/29 11:23:30;;;;;;;;;;;;;;;20.32;82.19;97472.50;5053952;28;20012;-61
2023/07/29 11:25:59;;;;;;;;;;;;;;;20.32;82.39;97472.50;5041132;28;19970;-59
2023/07/29 11:28:27;;;;;;;;;;;;;;;20.35;82.25;97474.50;5047770;28;20403;-59
2023/07/29 11:30:55;;;;;;;;;;;;;;;20.36;81.24;97481.59;5041494;28;20515;-59
2023/07/29 11:33:24;;;;;;;;;;;;;;;20.35;81.18;97491.03;5039102;28;20404;-60
2023/07/29 11:35:53;;;;;;;;;;;;;;;20.36;81.57;97481.59;5059116;28;19928;-60
2023/07/29 11:38:21;;;;;;;;;;;;;;;20.43;81.66;97480.81;5044903;28;19970;-60
2023/07/29 11:40:57;;;;;;;;;;;;;;;20.34;80.32;97472.88;5050326;28;19932;-56
2023/07/29 11:43:24;;;;;;;;;;;;;;;20.34;82.74;97475.66;5041611;28;19925;-56
2023/07/29 11:45:53;;;;;;;;;;;;;;;20.31;82.54;97478.41;5040320;28;19928;-57
2023/07/29 11:48:27;;;;;;;;;;;;;;;20.31;83.75;97486.69;5053021;28;19924;-57
2023/07/29 11:50:56;;;;;;;;;;;;;;;20.33;83.66;97484.31;5043656;28;20300;-55
2023/07/29 11:53:26;;;;;;;;;;;;;;;20.32;83.11;97480.78;5047716;28;19925;-56
2023/07/29 11:55:54;;;;;;;;;;;;;;;20.35;82.77;97476.47;5045289;28;19972;-56
2023/07/29 11:58:22;;;;;;;;;;;;;;;20.47;83.65;97467.88;5040027;28;20806;-58
2023/07/29 12:00:50;;;;;;;;;;;;;;;20.51;81.14;97463.16;5041285;28;19975;-57
2023/07/29 12:03:18;;;;;;;;;;;;;;;20.56;81.58;97457.28;5051477;28;19932;-57
2023/07/29 12:05:46;;;;;;;;;;;;;;;20.60;80.85;97446.22;5044701;28;19928;-56
2023/07/29 12:08:15;;;;;;;;;;;;;;;20.61;81.08;97445.06;5050403;28;20016;-56
2023/07/29 12:10:43;;;;;;;;;;;;;;;20.58;81.53;97421.78;5049497;28;20027;-58
2023/07/29 12:13:11;;;;;;;;;;;;;;;20.66;80.53;97430.88;5048058;28;20331;-56
2023/07/29 12:15:40;;;;;;;;;;;;;;;20.63;79.45;97431.66;5053331;28;19925;-58
2023/07/29 12:18:08;;;;;;;;;;;;;;;20.65;79.34;97434.81;5041226;28;19925;-56
2023/07/29 12:20:36;;;;;;;;;;;;;;;20.65;78.96;97438.38;5041802;28;20420;-57
2023/07/29 12:23:05;;;;;;;;;;;;;;;20.71;79.40;97436.03;5039763;28;19933;-57
2023/07/29 12:25:34;;;;;;;;;;;;;;;20.78;79.49;97430.53;5043088;28;19936;-56
2023/07/29 12:28:03;;;;;;;;;;;;;;;20.77;78.87;97428.94;5042356;28;20015;-56
2023/07/29 12:30:31;;;;;;;;;;;;;;;20.85;75.86;97432.53;5056835;28;19925;-59
2023/07/29 12:32:58;;;;;;;;;;;;;;;20.85;73.16;97440.81;5045849;28;20018;-57
2023/07/29 12:35:34;;;;;;;;;;;;;;;20.87;74.67;97433.69;5046583;28;20407;-56
2023/07/29 12:38:02;;;;;;;;;;;;;;;20.86;75.85;97425.81;5043936;28;19960;-58
2023/07/29 12:40:30;;;;;;;;;;;;;;;20.95;76.17;97433.72;5043922;28;19983;-56
2023/07/29 12:42:59;;;;;;;;;;;;;;;20.93;76.64;97431.34;5044849;28;19929;-56
2023/07/29 12:45:28;;;;;;;;;;;;;;;20.92;75.17;97433.31;5041144;28;19971;-56
2023/07/29 12:47:56;;;;;;;;;;;;;;;21.01;77.22;97438.47;5038746;28;20433;-56
2023/07/29 12:50:24;;;;;;;;;;;;;;;21.03;76.86;97430.56;5048620;28;19948;-57
2023/07/29 12:52:52;;;;;;;;;;;;;;;21.06;75.59;97429.81;5050332;28;19968;-56
2023/07/29 12:55:19;;;;;;;;;;;;;;;21.06;71.79;97440.06;5049045;28;19928;-57
2023/07/29 12:57:50;;;;;;;;;;;;;;;21.20;72.56;97431.81;5048119;28;20389;-58
2023/07/29 13:00:19;;;;;;;;;;;;;;;21.23;70.72;97414.44;5038098;28;20122;-56
2023/07/29 13:02:47;;;;;;;;;;;;;;;21.29;71.30;97414.81;5047538;28;20305;-56
2023/07/29 13:05:15;;;;;;;;;;;;;;;21.33;70.57;97416.44;5046026;28;19925;-56
2023/07/29 13:07:46;;;;;;;;;;;;;;;21.35;69.35;97408.53;5048590;28;19925;-56
2023/07/29 13:10:14;;;;;;;;;;;;;;;21.38;70.37;97407.75;5052709;28;19933;-56
2023/07/29 13:12:42;;;;;;;;;;;;;;;21.36;69.47;97410.16;5047014;28;20349;-57